sensor_id;sensor_type;location;lat;lon;timestamp;pressure;altitude;pressure_sealevel;temperature;humidity
44297;BME280;51842;47.450;8.654;2023-11-18T00:01:16;96364.97;;;1.50;100.00
44297;BME280;51842;47.450;8.654;2023-11-18T00:03:42;96359.66;;;1.43;100.00
44297;BME280;51842;47.450;8.654;2023-11-18T00:06:08;96366.31;;;1.39;100.00
44297;BME280;51842;47.450;8.654;2023-11-18T00:08:34;96358.78;;;1.36;100.00
44297;BME280;51842;47.450;8.654;2023-11-18T00:11:00;96362.16;;;1.30;100.00
44297;BME280;51842;47.450;8.654;2023-11-18T00:13:26;96364.16;;;1.28;100.00
44297;BME280;51842;47.450;8.654;2023-11-18T00:15:52;96360.72;;;1.27;100.00
44297;BME280;51842;47.450;8.654;2023-11-18T00:18:18;96362.72;;;1.25;100.00
44297;BME280;51842;47.450;8.654;2023-11-18T00:20:45;96359.72;;;1.28;100.00
44297;BME280;51842;47.450;8.654;2023-11-18T00:23:11;96356.72;;;1.31;100.00
44297;BME280;51842;47.450;8.654;2023-11-18T00:25:37;96356.34;;;1.34;100.00
44297;BME280;51842;47.450;8.654;2023-11-18T00:28:06;96352.75;;;1.35;100.00
44297;BME280;51842;47.450;8.654;2023-11-18T00:30:34;96350.91;;;1.36;100.00
44297;BME280;51842;47.450;8.654;2023-11-18T00:33:00;96355.41;;;1.42;100.00
44297;BME280;51842;47.450;8.654;2023-11-18T00:35:26;96351.84;;;1.50;100.00
44297;BME280;51842;47.450;8.654;2023-11-18T00:37:51;96352.28;;;1.53;100.00
44297;BME280;51842;47.450;8.654;2023-11-18T00:40:17;96350.91;;;1.57;100.00
44297;BME280;51842;47.450;8.654;2023-11-18T00:42:46;96360.03;;;1.61;100.00
44297;BME280;51842;47.450;8.654;2023-11-18T00:45:12;96355.03;;;1.67;100.00
44297;BME280;51842;47.450;8.654;2023-11-18T00:47:40;96353.66;;;1.71;100.00
44297;BME280;51842;47.450;8.654;2023-11-18T00:50:08;96363.41;;;1.77;100.00
44297;BME280;51842;47.450;8.654;2023-11-18T00:52:35;96363.81;;;1.80;100.00
44297;BME280;51842;47.450;8.654;2023-11-18T00:55:00;96358.56;;;1.80;100.00
44297;BME280;51842;47.450;8.654;2023-11-18T00:57:27;96363.88;;;1.87;100.00
44297;BME280;51842;47.450;8.654;2023-11-18T00:59:52;96373.44;;;1.95;100.00
44297;BME280;51842;47.450;8.654;2023-11-18T01:02:18;96376.13;;;2.01;100.00
44297;BME280;51842;47.450;8.654;2023-11-18T01:04:45;96378.97;;;2.06;100.00
44297;BME280;51842;47.450;8.654;2023-11-18T01:07:13;96379.22;;;2.12;100.00
44297;BME280;51842;47.450;8.654;2023-11-18T01:09:39;96374.38;;;2.15;100.00
44297;BME280;51842;47.450;8.654;2023-11-18T01:12:06;96381.72;;;2.20;100.00
44297;BME280;51842;47.450;8.654;2023-11-18T01:14:38;96383.75;;;2.24;100.00
44297;BME280;51842;47.450;8.654;2023-11-18T01:17:05;96382.34;;;2.28;100.00
44297;BME280;51842;47.450;8.654;2023-11-18T01:19:32;96379.34;;;2.31;100.00
44297;BME280;51842;47.450;8.654;2023-11-18T01:21:59;96386.66;;;2.36;100.00
44297;BME280;51842;47.450;8.654;2023-11-18T01:24:25;96384.44;;;2.40;100.00
44297;BME280;51842;47.450;8.654;2023-11-18T01:26:51;96380.41;;;2.44;100.00
44297;BME280;51842;47.450;8.654;2023-11-18T01:29:17;96381.22;;;2.44;100.00
44297;BME280;51842;47.450;8.654;2023-11-18T01:31:43;96375.78;;;2.46;100.00
44297;BME280;51842;47.450;8.654;2023-11-18T01:34:09;96383.72;;;2.52;100.00
44297;BME280;51842;47.450;8.654;2023-11-18T01:36:35;96379.25;;;2.53;100.00
44297;BME280;51842;47.450;8.654;2023-11-18T01:39:01;96379.25;;;2.53;100.00
44297;BME280;51842;47.450;8.654;2023-11-18T01:41:27;96380.84;;;2.47;100.00
44297;BME280;51842;47.450;8.654;2023-11-18T01:43:54;96384.88;;;2.43;100.00
44297;BME280;51842;47.450;8.654;2023-11-18T01:46:20;96377.16;;;2.35;100.00
44297;BME280;51842;47.450;8.654;2023-11-18T01:48:48;96381.16;;;2.31;100.00
44297;BME280;51842;47.450;8.654;2023-11-18T01:51:15;96382.31;;;2.22;100.00
44297;BME280;51842;47.450;8.654;2023-11-18T01:53:44;96389.72;;;2.12;100.00
44297;BME280;51842;47.450;8.654;2023-11-18T01:56:09;96389.06;;;2.03;100.00
44297;BME280;51842;47.450;8.654;2023-11-18T01:58:37;96390.19;;;1.94;100.00
44297;BME280;51842;47.450;8.654;2023-11-18T02:01:03;96383.06;;;1.88;100.00
44297;BME280;51842;47.450;8.654;2023-11-18T02:03:36;96379.59;;;1.80;100.00
44297;BME280;51842;47.450;8.654;2023-11-18T02:06:06;96386.59;;;1.73;100.00
44297;BME280;51842;47.450;8.654;2023-11-18T02:08:33;96382.28;;;1.66;100.00
44297;BME280;51842;47.450;8.654;2023-11-18T02:11:31;96381.78;;;1.55;100.00
44297;BME280;51842;47.450;8.654;2023-11-18T02:14:08;96380.13;;;1.48;100.00
44297;BME280;51842;47.450;8.654;2023-11-18T02:16:40;96375.19;;;1.38;100.00
44297;BME280;51842;47.450;8.654;2023-11-18T02:19:24;96372.09;;;1.34;100.00
44297;BME280;51842;47.450;8.654;2023-11-18T02:21:52;96358.31;;;1.26;100.00
44297;BME280;51842;47.450;8.654;2023-11-18T02:24:30;96361.03;;;1.18;100.00
44297;BME280;51842;47.450;8.654;2023-11-18T02:27:00;96355.34;;;1.14;100.00
44297;BME280;51842;47.450;8.654;2023-11-18T02:29:36;96353.63;;;1.06;100.00
44297;BME280;51842;47.450;8.654;2023-11-18T02:35:15;96350.78;;;1.01;100.00
44297;BME280;51842;47.450;8.654;2023-11-18T02:37:47;96345.25;;;0.96;100.00
44297;BME280;51842;47.450;8.654;2023-11-18T02:40:36;96354.06;;;0.88;100.00
44297;BME280;51842;47.450;8.654;2023-11-18T02:43:04;96352.34;;;0.81;100.00
44297;BME280;51842;47.450;8.654;2023-11-18T02:45:32;96351.28;;;0.75;100.00
44297;BME280;51842;47.450;8.654;2023-11-18T02:47:59;96349.22;;;0.71;100.00
44297;BME280;51842;47.450;8.654;2023-11-18T02:50:26;96359.91;;;0.69;100.00
44297;BME280;51842;47.450;8.654;2023-11-18T02:52:56;96353.38;;;0.65;100.00
44297;BME280;51842;47.450;8.654;2023-11-18T02:55:22;96355.56;;;0.61;100.00
44297;BME280;51842;47.450;8.654;2023-11-18T02:57:48;96355.47;;;0.55;100.00
44297;BME280;51842;47.450;8.654;2023-11-18T03:00:18;96344.72;;;0.50;100.00
44297;BME280;51842;47.450;8.654;2023-11-18T03:02:51;96349.34;;;0.48;100.00
44297;BME280;51842;47.450;8.654;2023-11-18T03:05:18;96346.72;;;0.48;100.00
44297;BME280;51842;47.450;8.654;2023-11-18T03:07:45;96343.31;;;0.47;100.00
44297;BME280;51842;47.450;8.654;2023-11-18T03:10:16;96338.22;;;0.45;100.00
44297;BME280;51842;47.450;8.654;2023-11-18T03:12:51;96334.78;;;0.45;100.00
44297;BME280;51842;47.450;8.654;2023-11-18T03:15:18;96335.81;;;0.44;100.00
44297;BME280;51842;47.450;8.654;2023-11-18T03:17:45;96335.69;;;0.37;100.00
44297;BME280;51842;47.450;8.654;2023-11-18T03:20:14;96341.50;;;0.33;100.00
44297;BME280;51842;47.450;8.654;2023-11-18T03:22:44;96352.50;;;0.28;100.00
44297;BME280;51842;47.450;8.654;2023-11-18T03:25:11;96355.13;;;0.28;100.00
44297;BME280;51842;47.450;8.654;2023-11-18T03:27:38;96360.38;;;0.28;100.00
44297;BME280;51842;47.450;8.654;2023-11-18T03:30:05;96357.28;;;0.25;100.00
44297;BME280;51842;47.450;8.654;2023-11-18T03:32:32;96361.28;;;0.20;100.00
44297;BME280;51842;47.450;8.654;2023-11-18T03:34:58;96350.34;;;0.17;100.00
44297;BME280;51842;47.450;8.654;2023-11-18T03:37:27;96341.03;;;0.14;100.00
44297;BME280;51842;47.450;8.654;2023-11-18T03:39:53;96329.75;;;0.14;100.00
44297;BME280;51842;47.450;8.654;2023-11-18T03:42:19;96329.09;;;0.12;100.00
44297;BME280;51842;47.450;8.654;2023-11-18T03:44:44;96328.50;;;0.10;100.00
44297;BME280;51842;47.450;8.654;2023-11-18T03:47:15;96326.03;;;0.08;100.00
44297;BME280;51842;47.450;8.654;2023-11-18T03:49:42;96338.50;;;0.06;100.00
44297;BME280;51842;47.450;8.654;2023-11-18T03:52:08;96338.69;;;0.05;100.00
44297;BME280;51842;47.450;8.654;2023-11-18T03:54:33;96337.22;;;0.02;100.00
44297;BME280;51842;47.450;8.654;2023-11-18T03:56:59;96346.91;;;0.02;100.00
44297;BME280;51842;47.450;8.654;2023-11-18T03:59:25;96345.28;;;0.01;100.00
44297;BME280;51842;47.450;8.654;2023-11-18T04:01:51;96340.66;;;0.03;100.00
44297;BME280;51842;47.450;8.654;2023-11-18T04:04:17;96346.72;;;0.03;100.00
44297;BME280;51842;47.450;8.654;2023-11-18T04:06:43;96344.09;;;0.03;100.00
44297;BME280;51842;47.450;8.654;2023-11-18T04:09:10;96349.34;;;0.03;100.00
44297;BME280;51842;47.450;8.654;2023-11-18T04:11:36;96352.78;;;0.04;100.00
44297;BME280;51842;47.450;8.654;2023-11-18T04:14:04;96357.84;;;0.05;100.00
44297;BME280;51842;47.450;8.654;2023-11-18T04:16:29;96349.16;;;0.05;100.00
44297;BME280;51842;47.450;8.654;2023-11-18T04:18:55;96345.75;;;0.04;100.00
44297;BME280;51842;47.450;8.654;2023-11-18T04:21:21;96335.44;;;0.03;100.00
44297;BME280;51842;47.450;8.654;2023-11-18T04:23:48;96328.22;;;0.05;100.00
44297;BME280;51842;47.450;8.654;2023-11-18T04:26:14;96331.63;;;0.05;100.00
44297;BME280;51842;47.450;8.654;2023-11-18T04:28:39;96330.38;;;0.01;100.00
44297;BME280;51842;47.450;8.654;2023-11-18T04:31:05;96334.38;;;-0.03;100.00
44297;BME280;51842;47.450;8.654;2023-11-18T04:33:32;96329.66;;;-0.08;100.00
44297;BME280;51842;47.450;8.654;2023-11-18T04:35:59;96337.16;;;-0.05;100.00
44297;BME280;51842;47.450;8.654;2023-11-18T04:38:26;96342.22;;;-0.03;100.00
44297;BME280;51842;47.450;8.654;2023-11-18T04:40:55;96343.19;;;-0.04;100.00
44297;BME280;51842;47.450;8.654;2023-11-18T04:43:21;96343.63;;;-0.01;100.00
44297;BME280;51842;47.450;8.654;2023-11-18T04:45:50;96347.72;;;0.02;100.00
44297;BME280;51842;47.450;8.654;2023-11-18T04:48:16;96350.69;;;-0.01;100.00
44297;BME280;51842;47.450;8.654;2023-11-18T04:50:42;96355.47;;;-0.05;100.00
44297;BME280;51842;47.450;8.654;2023-11-18T04:53:08;96354.47;;;-0.04;100.00
44297;BME280;51842;47.450;8.654;2023-11-18T04:55:37;96356.47;;;-0.06;100.00
44297;BME280;51842;47.450;8.654;2023-11-18T04:58:03;96359.63;;;-0.10;100.00
44297;BME280;51842;47.450;8.654;2023-11-18T05:00:35;96355.38;;;-0.11;100.00
44297;BME280;51842;47.450;8.654;2023-11-18T05:03:01;96356.53;;;-0.14;100.00
44297;BME280;51842;47.450;8.654;2023-11-18T05:05:29;96350.66;;;-0.16;100.00
44297;BME280;51842;47.450;8.654;2023-11-18T05:07:54;96342.19;;;-0.18;100.00
44297;BME280;51842;47.450;8.654;2023-11-18T05:10:20;96344.34;;;-0.21;100.00
44297;BME280;51842;47.450;8.654;2023-11-18T05:12:47;96337.66;;;-0.24;100.00
44297;BME280;51842;47.450;8.654;2023-11-18T05:15:22;96341.56;;;-0.20;100.00
44297;BME280;51842;47.450;8.654;2023-11-18T05:17:54;96343.16;;;-0.19;100.00
44297;BME280;51842;47.450;8.654;2023-11-18T05:20:21;96331.72;;;-0.18;100.00
44297;BME280;51842;47.450;8.654;2023-11-18T05:22:48;96329.47;;;-0.21;100.00
44297;BME280;51842;47.450;8.654;2023-11-18T05:25:14;96321.25;;;-0.18;100.00
44297;BME280;51842;47.450;8.654;2023-11-18T05:27:39;96326.66;;;-0.19;100.00
44297;BME280;51842;47.450;8.654;2023-11-18T05:30:07;96332.97;;;-0.14;100.00
44297;BME280;51842;47.450;8.654;2023-11-18T05:32:34;96322.78;;;-0.09;100.00
44297;BME280;51842;47.450;8.654;2023-11-18T05:35:00;96328.03;;;-0.09;100.00
44297;BME280;51842;47.450;8.654;2023-11-18T05:37:26;96331.53;;;-0.02;100.00
44297;BME280;51842;47.450;8.654;2023-11-18T05:39:54;96331.09;;;-0.05;100.00
44297;BME280;51842;47.450;8.654;2023-11-18T05:42:32;96326.75;;;0.02;100.00
44297;BME280;51842;47.450;8.654;2023-11-18T05:44:59;96320.50;;;0.03;100.00
44297;BME280;51842;47.450;8.654;2023-11-18T05:47:28;96318.09;;;0.02;100.00
44297;BME280;51842;47.450;8.654;2023-11-18T05:49:54;96319.09;;;0.01;100.00
44297;BME280;51842;47.450;8.654;2023-11-18T05:52:22;96326.31;;;-0.02;100.00
44297;BME280;51842;47.450;8.654;2023-11-18T05:54:48;96338.41;;;-0.01;100.00
44297;BME280;51842;47.450;8.654;2023-11-18T05:57:17;96337.22;;;0.02;100.00
44297;BME280;51842;47.450;8.654;2023-11-18T05:59:44;96337.69;;;0.06;100.00
44297;BME280;51842;47.450;8.654;2023-11-18T06:02:10;96324.22;;;0.09;100.00
44297;BME280;51842;47.450;8.654;2023-11-18T06:04:44;96320.81;;;0.08;100.00
44297;BME280;51842;47.450;8.654;2023-11-18T06:07:10;96316.91;;;0.04;100.00
44297;BME280;51842;47.450;8.654;2023-11-18T06:09:35;96310.69;;;0.05;100.00
44297;BME280;51842;47.450;8.654;2023-11-18T06:12:01;96314.75;;;0.08;100.00
44297;BME280;51842;47.450;8.654;2023-11-18T06:14:27;96318.72;;;0.04;100.00
44297;BME280;51842;47.450;8.654;2023-11-18T06:16:53;96314.47;;;0.03;100.00
44297;BME280;51842;47.450;8.654;2023-11-18T06:19:20;96323.41;;;0.08;100.00
44297;BME280;51842;47.450;8.654;2023-11-18T06:21:46;96320.88;;;0.15;100.00
44297;BME280;51842;47.450;8.654;2023-11-18T06:24:12;96314.13;;;0.20;100.00
44297;BME280;51842;47.450;8.654;2023-11-18T06:26:40;96319.06;;;0.15;100.00
44297;BME280;51842;47.450;8.654;2023-11-18T06:29:07;96322.53;;;0.16;100.00
44297;BME280;51842;47.450;8.654;2023-11-18T06:31:33;96329.56;;;0.15;100.00
44297;BME280;51842;47.450;8.654;2023-11-18T06:33:59;96329.56;;;0.15;100.00
44297;BME280;51842;47.450;8.654;2023-11-18T06:36:25;96335.78;;;0.14;100.00
44297;BME280;51842;47.450;8.654;2023-11-18T06:38:53;96330.56;;;0.14;100.00
44297;BME280;51842;47.450;8.654;2023-11-18T06:41:22;96330.38;;;0.16;100.00
44297;BME280;51842;47.450;8.654;2023-11-18T06:44:10;96327.56;;;0.17;100.00
44297;BME280;51842;47.450;8.654;2023-11-18T06:46:38;96322.34;;;0.17;100.00
44297;BME280;51842;47.450;8.654;2023-11-18T06:49:06;96337.91;;;0.19;100.00
44297;BME280;51842;47.450;8.654;2023-11-18T06:51:41;96344.91;;;0.18;100.00
44297;BME280;51842;47.450;8.654;2023-11-18T06:54:07;96339.31;;;0.21;100.00
44297;BME280;51842;47.450;8.654;2023-11-18T06:56:41;96339.50;;;0.20;100.00
44297;BME280;51842;47.450;8.654;2023-11-18T06:59:13;96337.53;;;0.22;100.00
44297;BME280;51842;47.450;8.654;2023-11-18T07:01:41;96331.91;;;0.25;100.00
44297;BME280;51842;47.450;8.654;2023-11-18T07:04:09;96329.91;;;0.27;100.00
44297;BME280;51842;47.450;8.654;2023-11-18T07:06:36;96331.53;;;0.28;100.00
44297;BME280;51842;47.450;8.654;2023-11-18T07:09:07;96331.00;;;0.33;100.00
44297;BME280;51842;47.450;8.654;2023-11-18T07:11:43;96335.69;;;0.37;100.00
44297;BME280;51842;47.450;8.654;2023-11-18T07:14:11;96329.91;;;0.42;100.00
44297;BME280;51842;47.450;8.654;2023-11-18T07:16:38;96334.78;;;0.45;100.00
44297;BME280;51842;47.450;8.654;2023-11-18T07:19:05;96337.50;;;0.52;100.00
44297;BME280;51842;47.450;8.654;2023-11-18T07:21:31;96337.13;;;0.55;100.00
44297;BME280;51842;47.450;8.654;2023-11-18T07:23:59;96342.81;;;0.58;100.00
44297;BME280;51842;47.450;8.654;2023-11-18T07:26:25;96348.69;;;0.60;100.00
44297;BME280;51842;47.450;8.654;2023-11-18T07:28:51;96355.84;;;0.66;100.00
44297;BME280;51842;47.450;8.654;2023-11-18T07:31:18;96357.91;;;0.71;100.00
44297;BME280;51842;47.450;8.654;2023-11-18T07:33:45;96361.16;;;0.73;100.00
44297;BME280;51842;47.450;8.654;2023-11-18T07:36:19;96360.88;;;0.83;100.00
44297;BME280;51842;47.450;8.654;2023-11-18T07:38:48;96361.75;;;0.90;100.00
44297;BME280;51842;47.450;8.654;2023-11-18T07:41:15;96363.63;;;0.96;100.00
44297;BME280;51842;47.450;8.654;2023-11-18T07:43:52;96360.25;;;1.02;100.00
44297;BME280;51842;47.450;8.654;2023-11-18T07:46:20;96365.03;;;1.13;100.00
44297;BME280;51842;47.450;8.654;2023-11-18T07:48:50;96367.53;;;1.22;100.00
44297;BME280;51842;47.450;8.654;2023-11-18T07:51:18;96369.25;;;1.29;100.00
44297;BME280;51842;47.450;8.654;2023-11-18T07:53:50;96364.47;;;1.39;100.00
44297;BME280;51842;47.450;8.654;2023-11-18T07:56:16;96366.41;;;1.52;100.00
44297;BME280;51842;47.450;8.654;2023-11-18T07:58:43;96363.28;;;1.64;100.00
44297;BME280;51842;47.450;8.654;2023-11-18T08:01:12;96365.78;;;1.72;100.00
44297;BME280;51842;47.450;8.654;2023-11-18T08:03:39;96352.13;;;1.83;100.00
44297;BME280;51842;47.450;8.654;2023-11-18T08:06:07;96362.72;;;1.96;100.00
44297;BME280;51842;47.450;8.654;2023-11-18T08:08:34;96359.19;;;2.11;100.00
44297;BME280;51842;47.450;8.654;2023-11-18T08:11:00;96359.91;;;2.26;100.00
44297;BME280;51842;47.450;8.654;2023-11-18T08:13:25;96346.19;;;2.37;100.00
44297;BME280;51842;47.450;8.654;2023-11-18T08:15:52;96358.44;;;2.51;100.00
44297;BME280;51842;47.450;8.654;2023-11-18T08:18:18;96363.13;;;2.63;100.00
44297;BME280;51842;47.450;8.654;2023-11-18T08:20:47;96357.09;;;2.75;100.00
44297;BME280;51842;47.450;8.654;2023-11-18T08:23:13;96354.53;;;2.89;100.00
44297;BME280;51842;47.450;8.654;2023-11-18T08:25:39;96360.41;;;2.97;100.00
44297;BME280;51842;47.450;8.654;2023-11-18T08:28:08;96362.69;;;3.07;100.00
44297;BME280;51842;47.450;8.654;2023-11-18T08:30:37;96360.50;;;3.17;100.00
44297;BME280;51842;47.450;8.654;2023-11-18T08:33:03;96375.91;;;3.27;100.00
44297;BME280;51842;47.450;8.654;2023-11-18T08:35:37;96375.53;;;3.37;100.00
44297;BME280;51842;47.450;8.654;2023-11-18T08:38:04;96378.16;;;3.43;100.00
44297;BME280;51842;47.450;8.654;2023-11-18T08:40:33;96375.34;;;3.52;100.00
44297;BME280;51842;47.450;8.654;2023-11-18T08:42:59;96373.13;;;3.62;100.00
44297;BME280;51842;47.450;8.654;2023-11-18T08:45:28;96366.66;;;3.78;100.00
44297;BME280;51842;47.450;8.654;2023-11-18T08:48:03;96361.38;;;3.91;100.00
44297;BME280;51842;47.450;8.654;2023-11-18T08:50:34;96350.22;;;4.02;100.00
44297;BME280;51842;47.450;8.654;2023-11-18T08:53:01;96340.06;;;4.12;100.00
44297;BME280;51842;47.450;8.654;2023-11-18T08:55:32;96349.59;;;4.13;100.00
44297;BME280;51842;47.450;8.654;2023-11-18T08:58:08;96346.34;;;4.18;100.00
44297;BME280;51842;47.450;8.654;2023-11-18T09:00:57;96346.56;;;4.23;100.00
44297;BME280;51842;47.450;8.654;2023-11-18T09:03:43;96341.66;;;4.40;100.00
44297;BME280;51842;47.450;8.654;2023-11-18T09:06:10;96341.38;;;4.61;100.00
44297;BME280;51842;47.450;8.654;2023-11-18T09:08:51;96334.00;;;4.83;100.00
44297;BME280;51842;47.450;8.654;2023-11-18T09:11:24;96329.63;;;5.02;100.00
44297;BME280;51842;47.450;8.654;2023-11-18T09:13:55;96328.59;;;5.03;100.00
44297;BME280;51842;47.450;8.654;2023-11-18T09:16:25;96320.53;;;4.98;100.00
44297;BME280;51842;47.450;8.654;2023-11-18T09:18:55;96313.53;;;5.10;100.00
44297;BME280;51842;47.450;8.654;2023-11-18T09:21:24;96321.91;;;5.01;100.00
44297;BME280;51842;47.450;8.654;2023-11-18T09:23:55;96325.97;;;5.03;100.00
44297;BME280;51842;47.450;8.654;2023-11-18T09:26:22;96315.13;;;5.18;100.00
44297;BME280;51842;47.450;8.654;2023-11-18T09:28:48;96310.78;;;5.30;100.00
44297;BME280;51842;47.450;8.654;2023-11-18T09:31:15;96308.28;;;5.42;100.00
44297;BME280;51842;47.450;8.654;2023-11-18T09:33:42;96305.53;;;5.55;100.00
44297;BME280;51842;47.450;8.654;2023-11-18T09:36:18;96311.94;;;5.66;100.00
44297;BME280;51842;47.450;8.654;2023-11-18T09:38:45;96308.00;;;5.75;100.00
44297;BME280;51842;47.450;8.654;2023-11-18T09:41:15;96306.28;;;5.88;100.00
44297;BME280;51842;47.450;8.654;2023-11-18T09:43:44;96309.53;;;5.90;100.00
44297;BME280;51842;47.450;8.654;2023-11-18T09:46:29;96315.59;;;5.97;100.00
44297;BME280;51842;47.450;8.654;2023-11-18T09:49:29;96320.53;;;6.12;100.00
44297;BME280;51842;47.450;8.654;2023-11-18T09:52:06;96329.38;;;6.24;100.00
44297;BME280;51842;47.450;8.654;2023-11-18T09:57:25;96331.91;;;6.56;100.00
44297;BME280;51842;47.450;8.654;2023-11-18T10:00:02;96336.75;;;6.59;97.13
44297;BME280;51842;47.450;8.654;2023-11-18T10:02:53;96326.00;;;6.72;95.53
44297;BME280;51842;47.450;8.654;2023-11-18T10:05:22;96320.34;;;6.87;97.39
44297;BME280;51842;47.450;8.654;2023-11-18T10:07:50;96316.66;;;6.88;93.40
44297;BME280;51842;47.450;8.654;2023-11-18T10:10:16;96317.81;;;6.92;93.77
44297;BME280;51842;47.450;8.654;2023-11-18T10:12:44;96322.28;;;6.91;91.12
44297;BME280;51842;47.450;8.654;2023-11-18T10:15:18;96321.19;;;6.99;91.01
44297;BME280;51842;47.450;8.654;2023-11-18T10:17:50;96324.66;;;7.00;89.56
44297;BME280;51842;47.450;8.654;2023-11-18T10:20:49;96320.66;;;7.09;91.29
44297;BME280;51842;47.450;8.654;2023-11-18T10:23:21;96317.47;;;7.18;91.03
44297;BME280;51842;47.450;8.654;2023-11-18T10:25:53;96317.38;;;7.25;90.19
44297;BME280;51842;47.450;8.654;2023-11-18T10:28:35;96313.69;;;7.26;88.12
44297;BME280;51842;47.450;8.654;2023-11-18T10:31:07;96320.63;;;7.27;87.72
44297;BME280;51842;47.450;8.654;2023-11-18T10:33:40;96320.53;;;7.34;86.31
44297;BME280;51842;47.450;8.654;2023-11-18T10:36:22;96321.44;;;7.39;85.93
44297;BME280;51842;47.450;8.654;2023-11-18T10:38:50;96319.53;;;7.47;86.04
44297;BME280;51842;47.450;8.654;2023-11-18T10:41:18;96306.28;;;7.47;85.84
44297;BME280;51842;47.450;8.654;2023-11-18T10:43:45;96309.75;;;7.59;84.88
44297;BME280;51842;47.450;8.654;2023-11-18T10:46:12;96307.94;;;7.71;84.36
44297;BME280;51842;47.450;8.654;2023-11-18T10:48:48;96300.31;;;7.86;84.39
44297;BME280;51842;47.450;8.654;2023-11-18T10:51:19;96303.44;;;7.95;83.29
44297;BME280;51842;47.450;8.654;2023-11-18T10:53:51;96312.34;;;8.01;83.70
44297;BME280;51842;47.450;8.654;2023-11-18T10:56:29;96313.84;;;8.08;81.64
44297;BME280;51842;47.450;8.654;2023-11-18T10:59:00;96316.84;;;8.12;82.45
44297;BME280;51842;47.450;8.654;2023-11-18T11:01:38;96317.88;;;8.11;82.10
44297;BME280;51842;47.450;8.654;2023-11-18T11:04:13;96315.47;;;8.09;81.30
44297;BME280;51842;47.450;8.654;2023-11-18T11:06:44;96320.88;;;8.15;80.37
44297;BME280;51842;47.450;8.654;2023-11-18T11:09:28;96325.63;;;8.13;79.66
44297;BME280;51842;47.450;8.654;2023-11-18T11:12:00;96326.28;;;8.20;79.57
44297;BME280;51842;47.450;8.654;2023-11-18T11:14:50;96329.16;;;8.30;80.58
44297;BME280;51842;47.450;8.654;2023-11-18T11:17:21;96320.75;;;8.33;79.52
44297;BME280;51842;47.450;8.654;2023-11-18T11:20:06;96318.44;;;8.37;79.83
44297;BME280;51842;47.450;8.654;2023-11-18T11:29:32;96316.03;;;8.23;73.76
44297;BME280;51842;47.450;8.654;2023-11-18T11:32:25;96318.34;;;8.31;76.76
44297;BME280;51842;47.450;8.654;2023-11-18T11:34:58;96322.13;;;8.35;72.02
44297;BME280;51842;47.450;8.654;2023-11-18T11:37:32;96319.72;;;8.34;71.88
44297;BME280;51842;47.450;8.654;2023-11-18T11:40:00;96323.53;;;8.26;70.86
44297;BME280;51842;47.450;8.654;2023-11-18T11:42:31;96316.03;;;8.23;72.94
44297;BME280;51842;47.450;8.654;2023-11-18T11:44:57;96319.84;;;8.16;71.20
44297;BME280;51842;47.450;8.654;2023-11-18T11:47:26;96313.03;;;8.20;73.09
44297;BME280;51842;47.450;8.654;2023-11-18T11:50:25;96296.63;;;8.23;74.57
44297;BME280;51842;47.450;8.654;2023-11-18T11:53:10;96293.41;;;8.21;72.79
44297;BME280;51842;47.450;8.654;2023-11-18T11:55:50;96282.09;;;8.25;73.39
44297;BME280;51842;47.450;8.654;2023-11-18T11:58:29;96276.00;;;8.25;73.50
44297;BME280;51842;47.450;8.654;2023-11-18T12:03:50;96282.44;;;8.17;73.49
44297;BME280;51842;47.450;8.654;2023-11-18T12:06:26;96278.78;;;8.06;75.81
44297;BME280;51842;47.450;8.654;2023-11-18T12:08:53;96282.09;;;8.02;78.13
44297;BME280;51842;47.450;8.654;2023-11-18T12:11:20;96291.44;;;8.04;77.37
44297;BME280;51842;47.450;8.654;2023-11-18T12:14:06;96288.78;;;8.04;75.28
44297;BME280;51842;47.450;8.654;2023-11-18T12:17:06;96281.88;;;8.03;77.84
44297;BME280;51842;47.450;8.654;2023-11-18T12:19:50;96273.91;;;7.92;80.74
44297;BME280;51842;47.450;8.654;2023-11-18T12:22:23;96287.78;;;7.94;82.23
44297;BME280;51842;47.450;8.654;2023-11-18T12:33:05;96283.81;;;7.73;86.01
44297;BME280;51842;47.450;8.654;2023-11-18T12:41:39;96285.09;;;7.70;88.26
44297;BME280;51842;47.450;8.654;2023-11-18T12:44:31;96283.69;;;7.68;88.61
44297;BME280;51842;47.450;8.654;2023-11-18T12:47:03;96285.78;;;7.65;89.78
44297;BME280;51842;47.450;8.654;2023-11-18T12:49:41;96276.31;;;7.58;90.61
44297;BME280;51842;47.450;8.654;2023-11-18T12:52:10;96269.03;;;7.53;90.73
44297;BME280;51842;47.450;8.654;2023-11-18T12:54:37;96271.91;;;7.52;90.35
44297;BME280;51842;47.450;8.654;2023-11-18T12:57:04;96256.34;;;7.44;90.83
44297;BME280;51842;47.450;8.654;2023-11-18T12:59:34;96256.00;;;7.40;91.58
44297;BME280;51842;47.450;8.654;2023-11-18T13:02:00;96247.47;;;7.38;90.55
44297;BME280;51842;47.450;8.654;2023-11-18T13:04:30;96248.16;;;7.33;90.68
44297;BME280;51842;47.450;8.654;2023-11-18T13:06:58;96240.88;;;7.29;90.34
44297;BME280;51842;47.450;8.654;2023-11-18T13:09:26;96240.41;;;7.32;90.52
44297;BME280;51842;47.450;8.654;2023-11-18T13:11:58;96238.00;;;7.30;90.53
44297;BME280;51842;47.450;8.654;2023-11-18T13:14:26;96235.00;;;7.27;90.15
44297;BME280;51842;47.450;8.654;2023-11-18T13:16:56;96241.69;;;7.29;91.53
44297;BME280;51842;47.450;8.654;2023-11-18T13:19:29;96241.91;;;7.28;93.16
44297;BME280;51842;47.450;8.654;2023-11-18T13:22:11;96242.38;;;7.25;93.39
44297;BME280;51842;47.450;8.654;2023-11-18T13:24:42;96238.91;;;7.24;91.92
44297;BME280;51842;47.450;8.654;2023-11-18T13:27:16;96234.28;;;7.19;90.24
44297;BME280;51842;47.450;8.654;2023-11-18T13:29:47;96230.84;;;7.19;90.02
44297;BME280;51842;47.450;8.654;2023-11-18T13:32:19;96233.03;;;7.22;89.97
44297;BME280;51842;47.450;8.654;2023-11-18T13:34:49;96232.22;;;7.22;89.46
44297;BME280;51842;47.450;8.654;2023-11-18T13:37:15;96232.44;;;7.20;91.55
44297;BME280;51842;47.450;8.654;2023-11-18T13:39:56;96232.69;;;7.18;89.46
44297;BME280;51842;47.450;8.654;2023-11-18T13:42:26;96231.03;;;7.17;88.22
44297;BME280;51842;47.450;8.654;2023-11-18T13:44:58;96219.44;;;7.18;88.81
44297;BME280;51842;47.450;8.654;2023-11-18T13:47:27;96222.88;;;7.19;91.54